ADDS METAR Data INFO
IDs: Format: Raw Decoded Include TAF

Data at: 0307 UTC 22 Apr 2018

KDGW 220253Z AUTO 13014KT 10SM CLR 04/03 A3011 RMK AO2 SLP203 T00440028 53007 $
KDGW 220153Z AUTO 14017G23KT 10SM CLR 06/03 A3010 RMK AO2 SLP199 T00610028 $
KDGW 220053Z AUTO 14016KT 10SM 11/02 A3009 RMK AO2 SLP187 T01060022 $
KDGW 212353Z AUTO 14011KT 10SM CLR 12/03 A3009 RMK AO2 SLP183 T01220028 10133 20067 56006
KDGW 212253Z AUTO 13007KT 10SM FEW044 13/03 A3009 RMK AO2 SLP181 T01280028
KDGW 212153Z AUTO VRB04KT 10SM FEW038 12/02 A3009 RMK AO2 SLP184 T01220017
KDGW 212053Z AUTO 16006KT 10SM CLR 11/03 A3011 RMK AO2 SLP193 T01060028 58012
KDGW 212001Z AUTO 11005KT 10SM BKN030 OVC075 11/03 A3013 RMK AO2 T01060028
KDGW 211953Z AUTO 12007KT 10SM BKN028 OVC075 09/03 A3013 RMK AO2 SLP199 T00940028
KDGW 211853Z AUTO 13008KT 10SM BKN025 09/03 A3014 RMK AO2 SLP205 T00890028
KDGW 211753Z AUTO VRB03KT 10SM OVC021 07/02 A3015 RMK AO2 SLP215 T00670022 10072 20011 58005
KDGW 211653Z AUTO VRB04KT 10SM OVC015 05/02 A3017 RMK AO2 SLP222 T00500022
KDGW 211638Z AUTO 17007KT 10SM OVC015 05/02 A3017 RMK AO2 T00500022
KDGW 211553Z AUTO 14009KT 10SM OVC012 04/03 A3017 RMK AO2 SLP226 T00390028
KDGW 211543Z AUTO 15008KT 10SM BKN010 OVC014 04/03 A3017 RMK AO2 CIG 006V013 T00390028
KDGW 211511Z AUTO 13008KT 10SM BKN008 OVC016 03/02 A3017 RMK AO2 CIG 006V010 T00280022
KDGW 211501Z AUTO 14008KT 10SM SCT008 OVC016 03/02 A3017 RMK AO2 T00280022
KDGW 211453Z AUTO 14008KT 10SM BKN005 OVC016 03/03 A3017 RMK AO2 SLP228 T00280028 50003
KDGW 211427Z AUTO 14009KT 10SM OVC005 02/02 A3018 RMK AO2 T00220022
KDGW 211353Z AUTO 14009KT 8SM OVC003 02/02 A3018 RMK AO2 SLP233 T00170017
KDGW 211253Z AUTO 16009KT 9SM OVC004 01/01 A3017 RMK AO2 SLP231 T00110011
KDGW 211153Z AUTO 15009KT 10SM OVC007 01/01 A3016 RMK AO2 SLP222 70001 T00110011 10028 20011 55004
KDGW 211053Z AUTO 12005KT 10SM OVC005 01/01 A3015 RMK AO2 SLP216 T00110011
KDGW 211043Z AUTO 13006KT 10SM OVC005 01/01 A3015 RMK AO2 T00110011
KDGW 210953Z AUTO 14009KT 7SM OVC004 01/01 A3017 RMK AO2 SLP221 T00110011
KDGW 210924Z AUTO 14011KT 5SM BR OVC004 01/01 A3018 RMK AO2 T00110011
KDGW 210853Z AUTO 15011KT 10SM OVC007 02/02 A3017 RMK AO2 SLP220 T00170017 51005
KDGW 210753Z AUTO 14012KT 9SM OVC005 02/02 A3017 RMK AO2 CIG 004V009 SLP215 T00220022
KDGW 210653Z AUTO 13010KT 10SM OVC006 02/02 A3017 RMK AO2 SLP216 T00220022 401060022
KDGW 210553Z AUTO 13010KT 10SM OVC006 02/02 A3016 RMK AO2 SLP216 60001 T00220022 10050 20022 52008
KDGW 210453Z AUTO 13008KT 10SM OVC006 02/02 A3014 RMK AO2 SLP211 T00220022
KDGW 210353Z AUTO 13009KT 8SM OVC007 02/02 A3014 RMK AO2 UPE00 SLP213 P0000 T00220022
KDGW 210253Z AUTO 13008KT 8SM UP OVC008 02/02 A3013 RMK AO2 RAE04UPB04 CIG 006V011 SLP213 P0001 60001 T00220022 53009
KDGW 210153Z AUTO 14011KT 8SM -RA OVC006 02/02 A3011 RMK AO2 RAE11B21UPB0056E21 CIG 006V010 SLP208 P0000 T00220022
KDGW 210118Z AUTO 13009KT 7SM UP BKN007 OVC014 03/02 A3010 RMK AO2 RAE11UPB0056 CIG 006V010 P0000 T00280022
KDGW 210053Z AUTO 15013KT 9SM -RA OVC012 03/02 A3010 RMK AO2 RAB21 SLP202 P0000 T00280022
KDGW 210050Z AUTO 15012KT 8SM -RA OVC014 03/02 A3010 RMK AO2 RAB21 P0000
KDGW 210012Z AUTO 13010KT 10SM BKN022 OVC034 04/01 A3009 RMK AO2 T00440011
KDGW 202353Z AUTO 13013KT 10SM OVC035 05/01 A3008 RMK AO2 SLP192 T00500011 10106 20050 53016
KDGW 202253Z AUTO 14011KT 10SM OVC037 07/01 A3005 RMK AO2 SLP176 T00670011
KDGW 202153Z AUTO 12012KT 10SM BKN038 BKN047 OVC055 07/01 A3003 RMK AO2 SLP166 T00720006
KDGW 202053Z AUTO 09007KT 10SM OVC046 08/M01 A3003 RMK AO2 SLP163 T00831006 56004
KDGW 201953Z AUTO 12012KT 10SM FEW040 SCT100 09/M01 A3003 RMK AO2 SLP158 T00941011
KDGW 201853Z AUTO 12014G19KT 10SM SCT070 BKN100 08/M01 A3003 RMK AO2 SLP157 T00831006
KDGW 201753Z AUTO 13014KT 10SM OVC060 07/M01 A3004 RMK AO2 SLP165 T00671011 10072 20022 53001
KDGW 201653Z AUTO 15012KT 10SM CLR 07/M02 A3001 RMK AO2 SLP154 T00671017
KDGW 201553Z AUTO 16017KT 10SM FEW047 SCT055 BKN100 06/M01 A3002 RMK AO2 SLP154 T00561011